sensor_id;sensor_type;location;lat;lon;timestamp;temperature;humidity
19000;DHT22;9633;50.980;13.850;2022-10-16T00:00:51;13.70;99.90
19000;DHT22;9633;50.980;13.850;2022-10-16T00:02:25;13.60;99.90
19000;DHT22;9633;50.980;13.850;2022-10-16T00:04:00;13.50;99.90
19000;DHT22;9633;50.980;13.850;2022-10-16T00:05:38;13.50;99.90
19000;DHT22;9633;50.980;13.850;2022-10-16T00:07:12;13.40;99.90
19000;DHT22;9633;50.980;13.850;2022-10-16T00:08:45;13.30;99.90
19000;DHT22;9633;50.980;13.850;2022-10-16T00:10:19;13.10;99.90
19000;DHT22;9633;50.980;13.850;2022-10-16T00:11:52;13.10;99.90
19000;DHT22;9633;50.980;13.850;2022-10-16T00:13:30;13.00;99.90
19000;DHT22;9633;50.980;13.850;2022-10-16T00:15:03;12.90;99.90
19000;DHT22;9633;50.980;13.850;2022-10-16T00:16:36;12.80;99.90
19000;DHT22;9633;50.980;13.850;2022-10-16T00:18:10;12.80;99.90
19000;DHT22;9633;50.980;13.850;2022-10-16T00:19:43;12.70;99.90
19000;DHT22;9633;50.980;13.850;2022-10-16T00:21:18;12.70;99.90
19000;DHT22;9633;50.980;13.850;2022-10-16T00:22:50;12.60;99.90
19000;DHT22;9633;50.980;13.850;2022-10-16T00:24:23;12.60;99.90
19000;DHT22;9633;50.980;13.850;2022-10-16T00:25:57;12.50;99.90
19000;DHT22;9633;50.980;13.850;2022-10-16T00:27:29;12.50;99.90
19000;DHT22;9633;50.980;13.850;2022-10-16T00:29:03;12.50;99.90
19000;DHT22;9633;50.980;13.850;2022-10-16T00:30:37;12.50;99.90
19000;DHT22;9633;50.980;13.850;2022-10-16T00:32:09;12.40;99.90
19000;DHT22;9633;50.980;13.850;2022-10-16T00:33:43;12.30;99.90
19000;DHT22;9633;50.980;13.850;2022-10-16T00:35:17;12.20;99.90
19000;DHT22;9633;50.980;13.850;2022-10-16T00:36:50;12.20;99.90
19000;DHT22;9633;50.980;13.850;2022-10-16T00:38:24;12.20;99.90
19000;DHT22;9633;50.980;13.850;2022-10-16T00:39:56;12.30;99.90
19000;DHT22;9633;50.980;13.850;2022-10-16T00:41:31;12.20;99.90
19000;DHT22;9633;50.980;13.850;2022-10-16T00:43:12;12.20;99.90
19000;DHT22;9633;50.980;13.850;2022-10-16T00:44:49;12.20;99.90
19000;DHT22;9633;50.980;13.850;2022-10-16T00:46:26;12.20;99.90
19000;DHT22;9633;50.980;13.850;2022-10-16T00:48:00;12.10;99.90
19000;DHT22;9633;50.980;13.850;2022-10-16T00:49:33;12.10;99.90
19000;DHT22;9633;50.980;13.850;2022-10-16T00:51:07;12.20;99.90
19000;DHT22;9633;50.980;13.850;2022-10-16T00:52:44;12.40;99.90
19000;DHT22;9633;50.980;13.850;2022-10-16T00:54:21;12.30;99.90
19000;DHT22;9633;50.980;13.850;2022-10-16T00:55:54;12.40;99.90
19000;DHT22;9633;50.980;13.850;2022-10-16T00:57:27;12.40;99.90
19000;DHT22;9633;50.980;13.850;2022-10-16T00:59:04;12.40;99.90
19000;DHT22;9633;50.980;13.850;2022-10-16T01:00:38;12.40;99.90
19000;DHT22;9633;50.980;13.850;2022-10-16T01:02:13;12.50;99.90
19000;DHT22;9633;50.980;13.850;2022-10-16T01:03:46;12.50;99.90
19000;DHT22;9633;50.980;13.850;2022-10-16T01:05:21;12.30;99.90
19000;DHT22;9633;50.980;13.850;2022-10-16T01:07:03;12.40;99.90
19000;DHT22;9633;50.980;13.850;2022-10-16T01:08:44;12.30;99.90
19000;DHT22;9633;50.980;13.850;2022-10-16T01:10:27;12.30;99.90
19000;DHT22;9633;50.980;13.850;2022-10-16T01:12:09;12.30;99.90
19000;DHT22;9633;50.980;13.850;2022-10-16T01:13:45;12.30;99.90
19000;DHT22;9633;50.980;13.850;2022-10-16T01:15:25;12.40;99.90
19000;DHT22;9633;50.980;13.850;2022-10-16T01:17:02;12.50;99.90
19000;DHT22;9633;50.980;13.850;2022-10-16T01:18:42;12.50;99.90
19000;DHT22;9633;50.980;13.850;2022-10-16T01:20:23;12.60;99.90
19000;DHT22;9633;50.980;13.850;2022-10-16T01:22:00;12.60;99.90
19000;DHT22;9633;50.980;13.850;2022-10-16T01:23:41;12.60;99.90
19000;DHT22;9633;50.980;13.850;2022-10-16T01:25:31;12.70;99.90
19000;DHT22;9633;50.980;13.850;2022-10-16T01:27:12;12.70;99.90
19000;DHT22;9633;50.980;13.850;2022-10-16T01:28:51;12.80;99.90
19000;DHT22;9633;50.980;13.850;2022-10-16T01:30:29;12.80;99.90
19000;DHT22;9633;50.980;13.850;2022-10-16T01:32:08;12.70;99.90
19000;DHT22;9633;50.980;13.850;2022-10-16T01:33:45;12.70;99.90
19000;DHT22;9633;50.980;13.850;2022-10-16T01:35:23;12.70;99.90
19000;DHT22;9633;50.980;13.850;2022-10-16T01:37:04;12.80;99.90
19000;DHT22;9633;50.980;13.850;2022-10-16T01:38:39;12.70;99.90
19000;DHT22;9633;50.980;13.850;2022-10-16T01:40:15;12.70;99.90
19000;DHT22;9633;50.980;13.850;2022-10-16T01:41:52;12.80;99.90
19000;DHT22;9633;50.980;13.850;2022-10-16T01:43:33;12.90;99.90
19000;DHT22;9633;50.980;13.850;2022-10-16T01:45:07;12.90;99.90
19000;DHT22;9633;50.980;13.850;2022-10-16T01:46:44;13.00;99.90
19000;DHT22;9633;50.980;13.850;2022-10-16T01:48:20;13.10;99.90
19000;DHT22;9633;50.980;13.850;2022-10-16T01:49:56;13.10;99.90
19000;DHT22;9633;50.980;13.850;2022-10-16T01:51:30;13.20;99.90
19000;DHT22;9633;50.980;13.850;2022-10-16T01:53:05;13.30;99.90
19000;DHT22;9633;50.980;13.850;2022-10-16T01:54:39;13.40;99.90
19000;DHT22;9633;50.980;13.850;2022-10-16T01:56:15;13.60;99.90
19000;DHT22;9633;50.980;13.850;2022-10-16T01:57:51;13.60;99.90
19000;DHT22;9633;50.980;13.850;2022-10-16T01:59:30;13.70;99.90
19000;DHT22;9633;50.980;13.850;2022-10-16T02:01:06;13.80;99.90
19000;DHT22;9633;50.980;13.850;2022-10-16T02:02:41;13.90;99.90
19000;DHT22;9633;50.980;13.850;2022-10-16T02:04:20;13.90;99.90
19000;DHT22;9633;50.980;13.850;2022-10-16T02:05:55;14.00;99.90
19000;DHT22;9633;50.980;13.850;2022-10-16T02:07:29;14.10;99.90
19000;DHT22;9633;50.980;13.850;2022-10-16T02:09:02;14.10;99.90
19000;DHT22;9633;50.980;13.850;2022-10-16T02:10:36;14.10;99.90
19000;DHT22;9633;50.980;13.850;2022-10-16T02:12:13;14.20;99.90
19000;DHT22;9633;50.980;13.850;2022-10-16T02:13:51;14.20;99.90
19000;DHT22;9633;50.980;13.850;2022-10-16T02:15:27;14.30;99.90
19000;DHT22;9633;50.980;13.850;2022-10-16T02:17:00;14.30;99.90
19000;DHT22;9633;50.980;13.850;2022-10-16T02:18:33;14.30;99.90
19000;DHT22;9633;50.980;13.850;2022-10-16T02:20:07;14.40;99.90
19000;DHT22;9633;50.980;13.850;2022-10-16T02:21:43;14.50;99.90
19000;DHT22;9633;50.980;13.850;2022-10-16T02:23:23;14.50;99.90
19000;DHT22;9633;50.980;13.850;2022-10-16T02:24:59;14.50;99.90
19000;DHT22;9633;50.980;13.850;2022-10-16T02:26:37;14.50;99.90
19000;DHT22;9633;50.980;13.850;2022-10-16T02:28:17;14.50;99.90
19000;DHT22;9633;50.980;13.850;2022-10-16T02:29:58;14.50;99.90
19000;DHT22;9633;50.980;13.850;2022-10-16T02:31:35;14.50;99.90
19000;DHT22;9633;50.980;13.850;2022-10-16T02:33:12;14.40;99.90
19000;DHT22;9633;50.980;13.850;2022-10-16T02:34:47;14.40;99.90
19000;DHT22;9633;50.980;13.850;2022-10-16T02:36:21;14.30;99.90
19000;DHT22;9633;50.980;13.850;2022-10-16T02:37:56;14.30;99.90
19000;DHT22;9633;50.980;13.850;2022-10-16T02:39:29;14.30;99.90
19000;DHT22;9633;50.980;13.850;2022-10-16T02:41:03;14.30;99.90
19000;DHT22;9633;50.980;13.850;2022-10-16T02:42:38;14.20;99.90
19000;DHT22;9633;50.980;13.850;2022-10-16T02:44:11;14.20;99.90
19000;DHT22;9633;50.980;13.850;2022-10-16T02:45:44;14.20;99.90
19000;DHT22;9633;50.980;13.850;2022-10-16T02:47:18;14.20;99.90
19000;DHT22;9633;50.980;13.850;2022-10-16T02:48:50;14.20;99.90
19000;DHT22;9633;50.980;13.850;2022-10-16T02:50:23;14.20;99.90
19000;DHT22;9633;50.980;13.850;2022-10-16T02:51:57;14.30;99.90
19000;DHT22;9633;50.980;13.850;2022-10-16T02:53:30;14.30;99.90
19000;DHT22;9633;50.980;13.850;2022-10-16T02:55:04;14.30;99.90
19000;DHT22;9633;50.980;13.850;2022-10-16T02:56:37;14.40;99.90
19000;DHT22;9633;50.980;13.850;2022-10-16T02:58:10;14.40;99.90
19000;DHT22;9633;50.980;13.850;2022-10-16T02:59:44;14.50;99.90
19000;DHT22;9633;50.980;13.850;2022-10-16T03:01:17;14.50;99.90
19000;DHT22;9633;50.980;13.850;2022-10-16T03:02:52;14.50;99.90
19000;DHT22;9633;50.980;13.850;2022-10-16T03:04:24;14.40;99.90
19000;DHT22;9633;50.980;13.850;2022-10-16T03:05:57;14.40;99.90
19000;DHT22;9633;50.980;13.850;2022-10-16T03:07:29;14.30;99.90
19000;DHT22;9633;50.980;13.850;2022-10-16T03:09:02;14.20;99.90
19000;DHT22;9633;50.980;13.850;2022-10-16T03:10:34;14.20;99.90
19000;DHT22;9633;50.980;13.850;2022-10-16T03:12:07;14.10;99.90
19000;DHT22;9633;50.980;13.850;2022-10-16T03:13:40;14.00;99.90
19000;DHT22;9633;50.980;13.850;2022-10-16T03:15:12;14.00;99.90
19000;DHT22;9633;50.980;13.850;2022-10-16T03:16:45;13.90;99.90
19000;DHT22;9633;50.980;13.850;2022-10-16T03:18:19;13.80;99.90
19000;DHT22;9633;50.980;13.850;2022-10-16T03:19:52;13.80;99.90
19000;DHT22;9633;50.980;13.850;2022-10-16T03:21:25;13.70;99.90
19000;DHT22;9633;50.980;13.850;2022-10-16T03:22:58;13.70;99.90
19000;DHT22;9633;50.980;13.850;2022-10-16T03:24:31;13.60;99.90
19000;DHT22;9633;50.980;13.850;2022-10-16T03:26:04;13.50;99.90
19000;DHT22;9633;50.980;13.850;2022-10-16T03:27:37;13.50;99.90
19000;DHT22;9633;50.980;13.850;2022-10-16T03:29:10;13.60;99.90
19000;DHT22;9633;50.980;13.850;2022-10-16T03:30:43;13.60;99.90
19000;DHT22;9633;50.980;13.850;2022-10-16T03:32:16;13.60;99.90
19000;DHT22;9633;50.980;13.850;2022-10-16T03:33:51;13.50;99.90
19000;DHT22;9633;50.980;13.850;2022-10-16T03:35:24;13.50;99.90
19000;DHT22;9633;50.980;13.850;2022-10-16T03:36:58;13.50;99.90
19000;DHT22;9633;50.980;13.850;2022-10-16T03:38:31;13.50;99.90
19000;DHT22;9633;50.980;13.850;2022-10-16T03:40:04;13.60;99.90
19000;DHT22;9633;50.980;13.850;2022-10-16T03:41:37;13.60;99.90
19000;DHT22;9633;50.980;13.850;2022-10-16T03:43:09;13.60;99.90
19000;DHT22;9633;50.980;13.850;2022-10-16T03:44:42;13.70;99.90
19000;DHT22;9633;50.980;13.850;2022-10-16T03:46:15;13.70;99.90
19000;DHT22;9633;50.980;13.850;2022-10-16T03:47:48;13.70;99.90
19000;DHT22;9633;50.980;13.850;2022-10-16T03:49:22;13.70;99.90
19000;DHT22;9633;50.980;13.850;2022-10-16T03:50:55;13.70;99.90
19000;DHT22;9633;50.980;13.850;2022-10-16T03:52:27;13.70;99.90
19000;DHT22;9633;50.980;13.850;2022-10-16T03:54:00;13.70;99.90
19000;DHT22;9633;50.980;13.850;2022-10-16T03:55:34;13.80;99.90
19000;DHT22;9633;50.980;13.850;2022-10-16T03:57:07;13.80;99.90
19000;DHT22;9633;50.980;13.850;2022-10-16T03:58:40;13.70;99.90
19000;DHT22;9633;50.980;13.850;2022-10-16T04:00:12;13.80;99.90
19000;DHT22;9633;50.980;13.850;2022-10-16T04:01:45;13.80;99.90
19000;DHT22;9633;50.980;13.850;2022-10-16T04:03:18;13.80;99.90
19000;DHT22;9633;50.980;13.850;2022-10-16T04:04:54;13.70;99.90
19000;DHT22;9633;50.980;13.850;2022-10-16T04:06:26;13.70;99.90
19000;DHT22;9633;50.980;13.850;2022-10-16T04:07:59;13.60;99.90
19000;DHT22;9633;50.980;13.850;2022-10-16T04:09:31;13.60;99.90
19000;DHT22;9633;50.980;13.850;2022-10-16T04:11:04;13.50;99.90
19000;DHT22;9633;50.980;13.850;2022-10-16T04:12:37;13.40;99.90
19000;DHT22;9633;50.980;13.850;2022-10-16T04:14:11;13.40;99.90
19000;DHT22;9633;50.980;13.850;2022-10-16T04:15:44;13.30;99.90
19000;DHT22;9633;50.980;13.850;2022-10-16T04:17:18;13.30;99.90
19000;DHT22;9633;50.980;13.850;2022-10-16T04:18:51;13.20;99.90
19000;DHT22;9633;50.980;13.850;2022-10-16T04:20:25;13.30;99.90
19000;DHT22;9633;50.980;13.850;2022-10-16T04:21:58;13.20;99.90
19000;DHT22;9633;50.980;13.850;2022-10-16T04:23:32;13.20;99.90
19000;DHT22;9633;50.980;13.850;2022-10-16T04:25:05;13.10;99.90
19000;DHT22;9633;50.980;13.850;2022-10-16T04:26:38;13.10;99.90
19000;DHT22;9633;50.980;13.850;2022-10-16T04:28:12;13.10;99.90
19000;DHT22;9633;50.980;13.850;2022-10-16T04:29:45;13.20;99.90
19000;DHT22;9633;50.980;13.850;2022-10-16T04:31:18;13.20;99.90
19000;DHT22;9633;50.980;13.850;2022-10-16T04:32:51;13.20;99.90
19000;DHT22;9633;50.980;13.850;2022-10-16T04:34:24;13.20;99.90
19000;DHT22;9633;50.980;13.850;2022-10-16T04:35:59;13.20;99.90
19000;DHT22;9633;50.980;13.850;2022-10-16T04:37:32;13.20;99.90
19000;DHT22;9633;50.980;13.850;2022-10-16T04:39:05;13.30;99.90
19000;DHT22;9633;50.980;13.850;2022-10-16T04:40:38;13.30;99.90
19000;DHT22;9633;50.980;13.850;2022-10-16T04:42:12;13.40;99.90
19000;DHT22;9633;50.980;13.850;2022-10-16T04:43:44;13.50;99.90
19000;DHT22;9633;50.980;13.850;2022-10-16T04:45:17;13.50;99.90
19000;DHT22;9633;50.980;13.850;2022-10-16T04:46:50;13.60;99.90
19000;DHT22;9633;50.980;13.850;2022-10-16T04:48:23;13.60;99.90
19000;DHT22;9633;50.980;13.850;2022-10-16T04:49:57;13.60;99.90
19000;DHT22;9633;50.980;13.850;2022-10-16T04:51:32;13.60;99.90
19000;DHT22;9633;50.980;13.850;2022-10-16T04:53:05;13.60;99.90
19000;DHT22;9633;50.980;13.850;2022-10-16T04:54:38;13.60;99.90
19000;DHT22;9633;50.980;13.850;2022-10-16T04:56:11;13.60;99.90
19000;DHT22;9633;50.980;13.850;2022-10-16T04:57:44;13.50;99.90
19000;DHT22;9633;50.980;13.850;2022-10-16T04:59:18;13.40;99.90
19000;DHT22;9633;50.980;13.850;2022-10-16T05:00:52;13.40;99.90
19000;DHT22;9633;50.980;13.850;2022-10-16T05:02:25;13.40;99.90
19000;DHT22;9633;50.980;13.850;2022-10-16T05:03:58;13.30;99.90
19000;DHT22;9633;50.980;13.850;2022-10-16T05:05:31;13.20;99.90
19000;DHT22;9633;50.980;13.850;2022-10-16T05:07:04;13.20;99.90
19000;DHT22;9633;50.980;13.850;2022-10-16T05:08:37;13.20;99.90
19000;DHT22;9633;50.980;13.850;2022-10-16T05:10:10;13.10;99.90
19000;DHT22;9633;50.980;13.850;2022-10-16T05:11:43;13.10;99.90
19000;DHT22;9633;50.980;13.850;2022-10-16T05:13:16;13.20;99.90
19000;DHT22;9633;50.980;13.850;2022-10-16T05:14:50;13.30;99.90
19000;DHT22;9633;50.980;13.850;2022-10-16T05:16:23;13.40;99.90
19000;DHT22;9633;50.980;13.850;2022-10-16T05:17:56;13.50;99.90
19000;DHT22;9633;50.980;13.850;2022-10-16T05:19:29;13.60;99.90
19000;DHT22;9633;50.980;13.850;2022-10-16T05:21:02;13.60;99.90
19000;DHT22;9633;50.980;13.850;2022-10-16T05:22:36;13.70;99.90
19000;DHT22;9633;50.980;13.850;2022-10-16T05:24:10;13.80;99.90
19000;DHT22;9633;50.980;13.850;2022-10-16T05:25:43;13.80;99.90
19000;DHT22;9633;50.980;13.850;2022-10-16T05:27:16;13.90;99.90
19000;DHT22;9633;50.980;13.850;2022-10-16T05:28:51;13.90;99.90
19000;DHT22;9633;50.980;13.850;2022-10-16T05:30:24;14.00;99.90
19000;DHT22;9633;50.980;13.850;2022-10-16T05:31:57;14.00;99.90
19000;DHT22;9633;50.980;13.850;2022-10-16T05:33:30;13.90;99.90
19000;DHT22;9633;50.980;13.850;2022-10-16T05:35:04;13.90;99.90
19000;DHT22;9633;50.980;13.850;2022-10-16T05:36:42;13.80;99.90
19000;DHT22;9633;50.980;13.850;2022-10-16T05:38:18;13.70;99.90
19000;DHT22;9633;50.980;13.850;2022-10-16T05:39:51;13.60;99.90
19000;DHT22;9633;50.980;13.850;2022-10-16T05:41:24;13.50;99.90
19000;DHT22;9633;50.980;13.850;2022-10-16T05:42:58;13.40;99.90
19000;DHT22;9633;50.980;13.850;2022-10-16T05:44:31;13.40;99.90
19000;DHT22;9633;50.980;13.850;2022-10-16T05:46:09;13.30;99.90
19000;DHT22;9633;50.980;13.850;2022-10-16T05:47:42;13.30;99.90
19000;DHT22;9633;50.980;13.850;2022-10-16T05:49:15;13.20;99.90
19000;DHT22;9633;50.980;13.850;2022-10-16T05:50:47;13.20;99.90
19000;DHT22;9633;50.980;13.850;2022-10-16T05:52:21;13.10;99.90
19000;DHT22;9633;50.980;13.850;2022-10-16T05:53:55;13.10;99.90
19000;DHT22;9633;50.980;13.850;2022-10-16T05:55:28;13.10;99.90
19000;DHT22;9633;50.980;13.850;2022-10-16T05:57:00;13.20;99.90
19000;DHT22;9633;50.980;13.850;2022-10-16T05:58:35;13.20;99.90
19000;DHT22;9633;50.980;13.850;2022-10-16T06:00:09;13.30;99.90
19000;DHT22;9633;50.980;13.850;2022-10-16T06:01:45;13.30;99.90
19000;DHT22;9633;50.980;13.850;2022-10-16T06:03:18;13.30;99.90
19000;DHT22;9633;50.980;13.850;2022-10-16T06:04:51;13.40;99.90
19000;DHT22;9633;50.980;13.850;2022-10-16T06:06:27;13.50;99.90
19000;DHT22;9633;50.980;13.850;2022-10-16T06:08:01;13.50;99.90
19000;DHT22;9633;50.980;13.850;2022-10-16T06:09:35;13.60;99.90
19000;DHT22;9633;50.980;13.850;2022-10-16T06:11:10;13.60;99.90
19000;DHT22;9633;50.980;13.850;2022-10-16T06:12:43;13.60;99.90
19000;DHT22;9633;50.980;13.850;2022-10-16T06:14:16;13.70;99.90
19000;DHT22;9633;50.980;13.850;2022-10-16T06:15:49;13.70;99.90
19000;DHT22;9633;50.980;13.850;2022-10-16T06:17:21;13.80;99.90
19000;DHT22;9633;50.980;13.850;2022-10-16T06:18:55;13.90;99.90
19000;DHT22;9633;50.980;13.850;2022-10-16T06:20:29;14.10;99.90
19000;DHT22;9633;50.980;13.850;2022-10-16T06:22:02;14.30;99.90
19000;DHT22;9633;50.980;13.850;2022-10-16T06:23:36;14.40;99.90
19000;DHT22;9633;50.980;13.850;2022-10-16T06:25:10;14.60;99.90
19000;DHT22;9633;50.980;13.850;2022-10-16T06:26:43;14.80;99.90
19000;DHT22;9633;50.980;13.850;2022-10-16T06:28:17;14.90;99.90
19000;DHT22;9633;50.980;13.850;2022-10-16T06:29:49;15.00;99.90
19000;DHT22;9633;50.980;13.850;2022-10-16T06:31:23;15.10;99.90
19000;DHT22;9633;50.980;13.850;2022-10-16T06:32:59;15.10;99.90
19000;DHT22;9633;50.980;13.850;2022-10-16T06:34:32;15.30;99.90
19000;DHT22;9633;50.980;13.850;2022-10-16T06:36:08;15.50;99.90
19000;DHT22;9633;50.980;13.850;2022-10-16T06:37:41;15.50;99.90
19000;DHT22;9633;50.980;13.850;2022-10-16T06:39:14;15.70;99.90
19000;DHT22;9633;50.980;13.850;2022-10-16T06:40:49;16.10;99.90
19000;DHT22;9633;50.980;13.850;2022-10-16T06:42:22;16.20;99.90
19000;DHT22;9633;50.980;13.850;2022-10-16T06:43:56;16.20;99.90
19000;DHT22;9633;50.980;13.850;2022-10-16T06:45:29;16.10;99.90
19000;DHT22;9633;50.980;13.850;2022-10-16T06:47:02;16.10;99.90
19000;DHT22;9633;50.980;13.850;2022-10-16T06:48:36;16.10;99.90
19000;DHT22;9633;50.980;13.850;2022-10-16T06:50:10;16.30;99.90
19000;DHT22;9633;50.980;13.850;2022-10-16T06:51:43;16.40;99.90
19000;DHT22;9633;50.980;13.850;2022-10-16T06:53:17;16.40;99.90
19000;DHT22;9633;50.980;13.850;2022-10-16T06:54:50;16.40;99.90
19000;DHT22;9633;50.980;13.850;2022-10-16T06:56:26;16.40;99.90
19000;DHT22;9633;50.980;13.850;2022-10-16T06:57:59;16.40;99.90
19000;DHT22;9633;50.980;13.850;2022-10-16T06:59:32;16.40;99.90
19000;DHT22;9633;50.980;13.850;2022-10-16T07:01:06;16.40;99.90
19000;DHT22;9633;50.980;13.850;2022-10-16T07:02:39;16.40;99.90
19000;DHT22;9633;50.980;13.850;2022-10-16T07:04:13;16.40;99.90
19000;DHT22;9633;50.980;13.850;2022-10-16T07:05:46;16.40;99.90
19000;DHT22;9633;50.980;13.850;2022-10-16T07:07:18;16.40;99.90
19000;DHT22;9633;50.980;13.850;2022-10-16T07:08:51;16.40;99.90
19000;DHT22;9633;50.980;13.850;2022-10-16T07:10:23;16.40;99.90
19000;DHT22;9633;50.980;13.850;2022-10-16T07:11:58;16.40;99.90
19000;DHT22;9633;50.980;13.850;2022-10-16T07:13:33;16.40;99.90
19000;DHT22;9633;50.980;13.850;2022-10-16T07:15:07;16.40;99.90
19000;DHT22;9633;50.980;13.850;2022-10-16T07:16:40;16.40;99.90
19000;DHT22;9633;50.980;13.850;2022-10-16T07:18:13;16.40;99.90
19000;DHT22;9633;50.980;13.850;2022-10-16T07:19:46;16.40;99.90
19000;DHT22;9633;50.980;13.850;2022-10-16T07:21:20;16.40;99.90
19000;DHT22;9633;50.980;13.850;2022-10-16T07:22:54;16.50;99.90
19000;DHT22;9633;50.980;13.850;2022-10-16T07:24:27;16.50;99.90
19000;DHT22;9633;50.980;13.850;2022-10-16T07:26:00;16.60;99.90
19000;DHT22;9633;50.980;13.850;2022-10-16T07:27:35;16.50;99.90
19000;DHT22;9633;50.980;13.850;2022-10-16T07:29:14;16.60;99.90
19000;DHT22;9633;50.980;13.850;2022-10-16T07:30:47;16.60;99.90
19000;DHT22;9633;50.980;13.850;2022-10-16T07:32:20;16.60;99.90
19000;DHT22;9633;50.980;13.850;2022-10-16T07:33:54;16.70;99.90
19000;DHT22;9633;50.980;13.850;2022-10-16T07:35:27;16.70;99.90
19000;DHT22;9633;50.980;13.850;2022-10-16T07:37:00;16.80;99.90
19000;DHT22;9633;50.980;13.850;2022-10-16T07:38:34;16.80;99.90
19000;DHT22;9633;50.980;13.850;2022-10-16T07:40:08;16.80;99.90
19000;DHT22;9633;50.980;13.850;2022-10-16T07:41:41;16.80;99.90
19000;DHT22;9633;50.980;13.850;2022-10-16T07:43:16;16.90;99.90
19000;DHT22;9633;50.980;13.850;2022-10-16T07:44:49;16.90;99.90
19000;DHT22;9633;50.980;13.850;2022-10-16T07:46:22;17.00;99.90
19000;DHT22;9633;50.980;13.850;2022-10-16T07:47:56;17.00;99.90
19000;DHT22;9633;50.980;13.850;2022-10-16T07:49:29;17.10;99.90
19000;DHT22;9633;50.980;13.850;2022-10-16T07:51:04;17.30;99.90
19000;DHT22;9633;50.980;13.850;2022-10-16T07:52:36;17.40;99.90
19000;DHT22;9633;50.980;13.850;2022-10-16T07:54:09;17.50;99.90
19000;DHT22;9633;50.980;13.850;2022-10-16T07:55:43;17.70;99.90
19000;DHT22;9633;50.980;13.850;2022-10-16T07:57:16;17.80;99.90
19000;DHT22;9633;50.980;13.850;2022-10-16T07:58:52;17.90;99.90
19000;DHT22;9633;50.980;13.850;2022-10-16T08:00:25;18.10;99.90
19000;DHT22;9633;50.980;13.850;2022-10-16T08:01:58;18.00;99.90
19000;DHT22;9633;50.980;13.850;2022-10-16T08:03:32;17.80;99.90
19000;DHT22;9633;50.980;13.850;2022-10-16T08:05:05;17.90;99.90
19000;DHT22;9633;50.980;13.850;2022-10-16T08:06:39;17.80;99.90
19000;DHT22;9633;50.980;13.850;2022-10-16T08:08:14;17.90;99.90
19000;DHT22;9633;50.980;13.850;2022-10-16T08:09:49;17.90;99.90
19000;DHT22;9633;50.980;13.850;2022-10-16T08:11:23;17.90;99.90
19000;DHT22;9633;50.980;13.850;2022-10-16T08:12:56;17.90;99.90
19000;DHT22;9633;50.980;13.850;2022-10-16T08:14:30;17.80;99.90
19000;DHT22;9633;50.980;13.850;2022-10-16T08:16:03;17.80;99.90
19000;DHT22;9633;50.980;13.850;2022-10-16T08:17:39;17.80;99.90
19000;DHT22;9633;50.980;13.850;2022-10-16T08:19:12;18.10;99.90
19000;DHT22;9633;50.980;13.850;2022-10-16T08:20:47;18.30;99.90
19000;DHT22;9633;50.980;13.850;2022-10-16T08:22:20;18.60;99.90
19000;DHT22;9633;50.980;13.850;2022-10-16T08:23:54;18.70;99.90
19000;DHT22;9633;50.980;13.850;2022-10-16T08:25:29;18.70;99.90
19000;DHT22;9633;50.980;13.850;2022-10-16T08:27:02;18.70;99.90
19000;DHT22;9633;50.980;13.850;2022-10-16T08:28:36;18.70;99.90
19000;DHT22;9633;50.980;13.850;2022-10-16T08:30:11;18.90;99.90
19000;DHT22;9633;50.980;13.850;2022-10-16T08:31:44;19.00;99.90
19000;DHT22;9633;50.980;13.850;2022-10-16T08:33:17;19.20;99.90
19000;DHT22;9633;50.980;13.850;2022-10-16T08:34:50;19.40;99.90
19000;DHT22;9633;50.980;13.850;2022-10-16T08:36:24;19.60;99.90
19000;DHT22;9633;50.980;13.850;2022-10-16T08:37:57;19.70;99.90
19000;DHT22;9633;50.980;13.850;2022-10-16T08:39:30;19.70;99.90
19000;DHT22;9633;50.980;13.850;2022-10-16T08:41:21;19.70;99.90
19000;DHT22;9633;50.980;13.850;2022-10-16T08:43:07;19.70;99.90
19000;DHT22;9633;50.980;13.850;2022-10-16T08:45:15;19.70;99.90
19000;DHT22;9633;50.980;13.850;2022-10-16T08:47:01;19.80;99.90
19000;DHT22;9633;50.980;13.850;2022-10-16T08:48:41;20.00;99.90
19000;DHT22;9633;50.980;13.850;2022-10-16T08:50:21;20.30;99.90
19000;DHT22;9633;50.980;13.850;2022-10-16T08:51:56;20.60;99.90
19000;DHT22;9633;50.980;13.850;2022-10-16T08:53:33;20.70;99.90
19000;DHT22;9633;50.980;13.850;2022-10-16T08:55:28;20.90;99.90
19000;DHT22;9633;50.980;13.850;2022-10-16T08:57:09;21.40;99.90
19000;DHT22;9633;50.980;13.850;2022-10-16T08:58:45;22.00;99.90
19000;DHT22;9633;50.980;13.850;2022-10-16T09:00:26;22.40;99.90
19000;DHT22;9633;50.980;13.850;2022-10-16T09:01:59;22.60;99.90
19000;DHT22;9633;50.980;13.850;2022-10-16T09:03:43;22.40;99.90
19000;DHT22;9633;50.980;13.850;2022-10-16T09:05:24;22.10;99.90
19000;DHT22;9633;50.980;13.850;2022-10-16T09:07:03;22.00;99.90
19000;DHT22;9633;50.980;13.850;2022-10-16T09:08:43;21.80;99.90
19000;DHT22;9633;50.980;13.850;2022-10-16T09:10:29;21.60;99.90
19000;DHT22;9633;50.980;13.850;2022-10-16T09:12:09;21.50;99.90
19000;DHT22;9633;50.980;13.850;2022-10-16T09:13:50;21.70;99.90
19000;DHT22;9633;50.980;13.850;2022-10-16T09:15:31;21.90;99.90
19000;DHT22;9633;50.980;13.850;2022-10-16T09:17:18;21.90;99.90
19000;DHT22;9633;50.980;13.850;2022-10-16T09:18:58;22.00;99.90
19000;DHT22;9633;50.980;13.850;2022-10-16T09:20:39;22.00;99.90
19000;DHT22;9633;50.980;13.850;2022-10-16T09:22:16;22.10;99.90
19000;DHT22;9633;50.980;13.850;2022-10-16T09:23:51;21.90;99.90
19000;DHT22;9633;50.980;13.850;2022-10-16T09:25:24;21.90;99.90
19000;DHT22;9633;50.980;13.850;2022-10-16T09:26:58;22.20;99.90
19000;DHT22;9633;50.980;13.850;2022-10-16T09:28:31;22.40;99.90
19000;DHT22;9633;50.980;13.850;2022-10-16T09:30:11;22.40;99.90
19000;DHT22;9633;50.980;13.850;2022-10-16T09:31:46;22.70;99.90
19000;DHT22;9633;50.980;13.850;2022-10-16T09:33:22;22.90;99.90
19000;DHT22;9633;50.980;13.850;2022-10-16T09:34:56;23.40;99.90
19000;DHT22;9633;50.980;13.850;2022-10-16T09:36:35;23.90;99.90
19000;DHT22;9633;50.980;13.850;2022-10-16T09:38:09;24.00;99.90
19000;DHT22;9633;50.980;13.850;2022-10-16T09:39:54;23.90;99.90
19000;DHT22;9633;50.980;13.850;2022-10-16T09:41:27;23.70;99.90
19000;DHT22;9633;50.980;13.850;2022-10-16T09:43:07;23.50;99.90
19000;DHT22;9633;50.980;13.850;2022-10-16T09:44:48;23.10;99.90
19000;DHT22;9633;50.980;13.850;2022-10-16T09:46:26;22.90;99.90
19000;DHT22;9633;50.980;13.850;2022-10-16T09:48:10;22.80;99.90
19000;DHT22;9633;50.980;13.850;2022-10-16T09:49:51;22.70;99.90
19000;DHT22;9633;50.980;13.850;2022-10-16T09:51:27;22.60;99.90
19000;DHT22;9633;50.980;13.850;2022-10-16T09:53:05;22.60;99.90
19000;DHT22;9633;50.980;13.850;2022-10-16T09:54:49;22.70;99.90
19000;DHT22;9633;50.980;13.850;2022-10-16T09:56:24;22.80;99.90
19000;DHT22;9633;50.980;13.850;2022-10-16T09:57:57;23.10;99.90
19000;DHT22;9633;50.980;13.850;2022-10-16T09:59:31;23.40;99.90